createdAt,value
2022-07-28T00:12:58.547Z,8542.8877
2022-07-28T00:28:00.765Z,8753.02539
2022-07-28T00:43:03.044Z,8654.24219
2022-07-28T00:58:05.326Z,8466.55566
2022-07-28T01:13:07.774Z,8140.57373
2022-07-28T01:28:11.797Z,7907.08789
2022-07-28T01:43:14.081Z,7502.07959
2022-07-28T01:58:16.373Z,3721.40503
2022-07-28T02:13:18.669Z,1264.41565
2022-07-28T02:28:20.966Z,1144.97864
2022-07-28T02:43:23.238Z,970.76227
2022-07-28T02:58:25.587Z,733.68439
2022-07-28T03:13:27.886Z,363.6991
2022-07-28T03:28:30.162Z,168.82823
2022-07-28T03:43:32.489Z,58.37146
2022-07-28T03:58:35.020Z,8.98022
2022-07-28T04:13:37.477Z,0.89802
2022-07-28T04:28:39.817Z,0
2022-07-28T04:43:42.114Z,0
2022-07-28T04:58:44.610Z,0
2022-07-28T05:13:47.284Z,0
2022-07-28T05:28:49.576Z,0
2022-07-28T05:43:51.873Z,0
2022-07-28T05:58:55.888Z,0
2022-07-28T06:13:58.129Z,0
2022-07-28T06:29:00.405Z,0
2022-07-28T06:44:02.722Z,0
2022-07-28T06:59:05.055Z,0
2022-07-28T07:14:07.344Z,0
2022-07-28T07:29:09.601Z,0
2022-07-28T07:44:12.511Z,0
2022-07-28T07:59:14.991Z,0
2022-07-28T08:14:18.166Z,0
2022-07-28T08:29:20.802Z,0
2022-07-28T08:44:23.118Z,0
2022-07-28T08:59:25.463Z,0
2022-07-28T09:14:27.765Z,0
2022-07-28T09:29:30.036Z,0
2022-07-28T09:44:32.500Z,0
2022-07-28T09:59:34.837Z,0
2022-07-28T10:14:37.165Z,0
2022-07-28T10:29:39.450Z,0
2022-07-28T10:44:46.544Z,0
2022-07-28T10:59:48.876Z,0
2022-07-28T11:14:51.189Z,0
2022-07-28T11:29:53.830Z,0
2022-07-28T11:44:56.324Z,4.49011
2022-07-28T11:59:58.547Z,37.71695
2022-07-28T12:15:06.359Z,134.70337
2022-07-28T12:30:09.517Z,316.10391
2022-07-28T12:45:11.847Z,512.77081
2022-07-28T13:00:14.139Z,761.52307
2022-07-28T13:15:16.520Z,1900.21558
2022-07-28T13:30:18.834Z,2518.05493
2022-07-28T13:45:22.173Z,3117.93408
2022-07-28T14:00:26.235Z,3699.85254
2022-07-28T14:15:29.118Z,5803.021
2022-07-28T14:30:31.418Z,4416.47461
2022-07-28T14:45:33.691Z,4103.96289
2022-07-28T15:01:03.021Z,4350.91895
2022-07-28T15:16:05.400Z,5256.12549
2022-07-28T15:31:08.687Z,4861.89355
2022-07-28T15:46:11.514Z,5765.3042
2022-07-28T16:01:13.928Z,5917.96826
2022-07-28T16:16:16.318Z,6157.74023
2022-07-28T16:31:19.266Z,5474.34521
2022-07-28T16:46:21.755Z,5471.65088
2022-07-28T17:01:24.241Z,4165.02832
2022-07-28T17:16:26.627Z,5094.48145
2022-07-28T17:31:29.088Z,4820.58447
2022-07-28T17:46:36.158Z,4623.91748
2022-07-28T18:01:42.399Z,4444.31299
2022-07-28T18:16:47.789Z,4649.0625
2022-07-28T18:31:50.210Z,3853.41455
2022-07-28T18:46:52.673Z,4390.43164
2022-07-28T19:01:55.050Z,5067.54102
2022-07-28T19:16:57.639Z,3451.10034
2022-07-28T19:32:00.086Z,3309.21289
2022-07-28T19:47:02.370Z,5150.15869
2022-07-28T20:02:04.865Z,5131.30029
2022-07-28T20:17:07.378Z,2670.71875
2022-07-28T20:32:09.831Z,4929.24512
2022-07-28T20:47:12.157Z,5266.00391
2022-07-28T21:02:14.853Z,4948.104
2022-07-28T21:17:17.235Z,5046.88623
2022-07-28T21:32:19.530Z,5043.29443
2022-07-28T21:47:21.901Z,4194.66309
2022-07-28T22:02:24.283Z,5832.65576
2022-07-28T22:17:28.078Z,5133.99463
2022-07-28T22:32:32.093Z,4740.66064
2022-07-28T22:47:34.467Z,5522.83838
2022-07-28T23:02:36.905Z,5879.35303
2022-07-28T23:17:39.246Z,6626.50781
2022-07-28T23:32:41.516Z,7163.52539
2022-07-28T23:47:43.764Z,7796.63135
